Time;durP1;ratioP1;P1;durP2;ratioP2;P2;SDS_P1;SDS_P2;PMS_P1;PMS_P2;Temp;Humidity;BMP_temperature;BMP_pressure;BME280_temperature;BME280_humidity;BME280_pressure;Samples;Min_cycle;Max_cycle;Signal;HPM_P1;HPM_P2
2021/06/19 00:00:30;;;;;;;10.10;8.48;;;;;;;23.27;nan;101468.56;5042464;28;20028;-73
2021/06/19 00:02:56;;;;;;;11.60;8.93;;;;;;;23.33;nan;101474.69;5042818;28;20063;-73
2021/06/19 00:05:23;;;;;;;13.88;9.20;;;;;;;23.34;nan;101479.03;5044725;28;20021;-73
2021/06/19 00:07:48;;;;;;;10.73;8.75;;;;;;;23.38;nan;101471.84;5040755;28;20056;-73
2021/06/19 00:10:15;;;;;;;10.57;9.52;;;;;;;23.36;nan;101474.09;5043792;28;20035;-73
2021/06/19 00:12:42;;;;;;;9.75;8.85;;;;;;;23.14;nan;101483.94;5044203;28;20033;-73
2021/06/19 00:15:10;;;;;;;11.38;9.07;;;;;;;22.89;nan;101481.91;5024343;28;20020;-73
2021/06/19 00:17:36;;;;;;;14.95;9.30;;;;;;;23.02;nan;101472.81;5042974;28;20107;-73
2021/06/19 00:20:09;;;;;;;12.18;9.38;;;;;;;23.08;nan;101473.47;5041293;28;20499;-73
2021/06/19 00:22:35;;;;;;;12.15;9.35;;;;;;;23.13;nan;101478.81;5021113;28;20041;-73
2021/06/19 00:25:00;;;;;;;10.98;9.80;;;;;;;23.12;nan;101477.19;5023841;28;22379;-73
2021/06/19 00:27:26;;;;;;;10.32;9.35;;;;;;;23.06;nan;101483.94;5043281;28;20647;-73
2021/06/19 00:29:51;;;;;;;11.23;9.77;;;;;;;23.02;nan;101481.03;5040470;28;20033;-73
2021/06/19 00:32:17;;;;;;;13.35;9.82;;;;;;;22.97;nan;101483.06;5043814;28;20537;-73
2021/06/19 00:34:42;;;;;;;13.52;10.43;;;;;;;22.94;nan;101484.50;5039269;28;20231;-73
2021/06/19 00:37:08;;;;;;;10.65;9.60;;;;;;;22.89;nan;101481.91;5039349;28;20116;-73
2021/06/19 00:39:34;;;;;;;14.25;10.70;;;;;;;22.83;nan;101481.25;5026775;28;20103;-72
2021/06/19 00:41:59;;;;;;;12.52;10.40;;;;;;;22.77;nan;101479.72;5021218;28;20071;-73
2021/06/19 00:44:25;;;;;;;28.30;11.27;;;;;;;22.70;nan;101481.28;5042535;28;20617;-73
2021/06/19 00:46:54;;;;;;;26.80;12.25;;;;;;;22.59;nan;101472.53;5042453;28;20021;-73
2021/06/19 00:49:21;;;;;;;41.53;12.25;;;;;;;22.52;nan;101472.16;5043265;28;20104;-73
2021/06/19 00:51:47;;;;;;;33.67;12.60;;;;;;;22.44;nan;101475.63;5043962;28;20112;-73
2021/06/19 00:54:13;;;;;;;29.30;11.70;;;;;;;22.33;nan;101477.81;5043852;28;20104;-73
2021/06/19 00:56:39;;;;;;;21.65;11.77;;;;;;;22.22;nan;101479.97;5040697;28;20040;-73
2021/06/19 00:59:07;;;;;;;16.63;11.05;;;;;;;22.10;nan;101477.00;5040771;28;20040;-73
2021/06/19 01:01:32;;;;;;;21.75;11.90;;;;;;;22.02;nan;101477.66;5045138;28;20502;-73
2021/06/19 01:04:00;;;;;;;24.75;11.93;;;;;;;21.99;nan;101470.09;5039996;28;20099;-73
2021/06/19 01:06:27;;;;;;;19.33;13.18;;;;;;;21.92;nan;101465.06;5040394;28;20108;-73
2021/06/19 01:08:53;;;;;;;16.15;11.80;;;;;;;21.85;nan;101464.66;5023683;28;20029;-73
2021/06/19 01:11:21;;;;;;;15.55;11.45;;;;;;;21.82;nan;101465.28;5041272;28;20510;-73
2021/06/19 01:13:51;;;;;;;14.18;11.30;;;;;;;21.76;nan;101473.91;5038847;28;20650;-73
2021/06/19 01:16:18;;;;;;;13.48;11.25;;;;;;;21.68;nan;101467.22;5042324;28;20556;-73
2021/06/19 01:18:44;;;;;;;12.27;11.02;;;;;;;21.61;nan;101462.19;5041583;28;20054;-73
2021/06/19 01:21:20;;;;;;;15.50;11.55;;;;;;;21.49;nan;101467.34;5041236;28;20029;-73
2021/06/19 01:23:46;;;;;;;14.98;11.93;;;;;;;21.42;nan;101461.50;5022506;28;20028;-72
2021/06/19 01:26:14;;;;;;;14.07;11.80;;;;;;;21.32;nan;101456.25;5042656;28;20478;-73
2021/06/19 01:28:41;;;;;;;15.95;11.93;;;;;;;21.26;nan;101462.91;5042122;28;20100;-73
2021/06/19 01:31:06;;;;;;;13.48;11.48;;;;;;;21.17;nan;101456.50;5023781;28;20020;-72
2021/06/19 01:33:32;;;;;;;14.15;12.30;;;;;;;21.11;nan;101463.97;5043648;28;20433;-72
2021/06/19 01:35:57;;;;;;;15.20;11.70;;;;;;;21.01;nan;101454.09;5042481;28;20474;-73
2021/06/19 01:38:23;;;;;;;15.98;11.18;;;;;;;20.92;nan;101455.88;5040253;28;20386;-72
2021/06/19 01:40:48;;;;;;;12.75;11.35;;;;;;;20.97;nan;101452.25;5038829;28;20047;-72
2021/06/19 01:43:14;;;;;;;12.77;11.35;;;;;;;20.90;nan;101455.38;5036335;28;20060;-73
2021/06/19 01:45:40;;;;;;;15.43;11.68;;;;;;;20.91;nan;101456.19;5041321;28;21839;-73
2021/06/19 01:48:07;;;;;;;13.35;11.82;;;;;;;20.84;nan;101461.22;5024251;28;20638;-73
2021/06/19 01:50:34;;;;;;;18.10;13.50;;;;;;;20.75;nan;101453.72;5022842;28;20525;-73
2021/06/19 01:53:01;;;;;;;14.05;12.60;;;;;;;20.70;nan;101453.03;5041217;28;20029;-73
2021/06/19 01:55:27;;;;;;;15.43;12.40;;;;;;;20.60;nan;101453.19;5035493;28;20029;-73
2021/06/19 01:57:55;;;;;;;13.43;11.75;;;;;;;20.52;nan;101457.41;5040584;28;20050;-73
2021/06/19 02:00:25;;;;;;;19.05;12.57;;;;;;;20.45;nan;101455.03;5043044;28;20117;-73
2021/06/19 02:02:51;;;;;;;15.40;11.48;;;;;;;20.40;nan;101452.38;5042076;28;20584;-73
2021/06/19 02:05:18;;;;;;;15.48;13.38;;;;;;;20.35;nan;101449.75;5042787;28;20056;-73
2021/06/19 02:08:05;;;;;;;15.95;13.57;;;;;;;20.23;nan;101443.94;5040605;28;20066;-73
2021/06/19 02:10:36;;;;;;;15.02;12.68;;;;;;;20.22;nan;101448.56;5041383;28;20360;-73
2021/06/19 02:13:04;;;;;;;15.57;12.98;;;;;;;20.17;nan;101445.94;5042896;28;20383;-73
2021/06/19 02:15:31;;;;;;;17.65;13.18;;;;;;;20.14;nan;101443.81;5039233;28;20025;-73
2021/06/19 02:17:57;;;;;;;16.88;13.23;;;;;;;20.05;nan;101444.75;5038830;28;20029;-73
2021/06/19 02:20:23;;;;;;;18.85;12.63;;;;;;;19.99;nan;101446.75;5042640;28;20032;-73
2021/06/19 02:22:50;;;;;;;16.35;13.20;;;;;;;19.99;nan;101452.19;5041130;28;20620;-73
2021/06/19 02:25:18;;;;;;;14.05;12.55;;;;;;;20.03;nan;101447.78;5039450;28;20021;-73
2021/06/19 02:28:02;;;;;;;13.82;12.00;;;;;;;20.05;nan;101442.84;5041975;28;20486;-72
2021/06/19 02:30:31;;;;;;;15.60;13.32;;;;;;;20.02;nan;101446.16;5039037;28;20108;-72
2021/06/19 02:32:58;;;;;;;14.40;12.90;;;;;;;20.04;nan;101443.97;5041377;28;20059;-72
2021/06/19 02:35:29;;;;;;;16.65;12.80;;;;;;;19.98;nan;101442.41;5041757;28;20025;-72
2021/06/19 02:37:56;;;;;;;20.58;13.13;;;;;;;19.96;nan;101451.97;5039528;28;20028;-72
2021/06/19 02:40:22;;;;;;;15.32;13.40;;;;;;;19.95;nan;101447.66;5041352;28;20017;-72
2021/06/19 02:42:48;;;;;;;14.25;12.77;;;;;;;19.91;nan;101450.13;5044939;28;20032;-72
2021/06/19 02:45:13;;;;;;;14.25;12.75;;;;;;;19.86;nan;101442.03;5044479;28;20036;-72
2021/06/19 02:47:43;;;;;;;16.75;12.65;;;;;;;19.84;nan;101450.50;5038427;28;20056;-72
2021/06/19 02:50:10;;;;;;;19.30;13.30;;;;;;;19.80;nan;101443.22;5021558;28;20021;-72
2021/06/19 02:52:43;;;;;;;17.38;14.02;;;;;;;19.73;nan;101443.56;5024175;28;20120;-73
2021/06/19 02:55:20;;;;;;;19.90;14.25;;;;;;;19.77;nan;101443.81;5040797;28;20028;-72
2021/06/19 02:57:47;;;;;;;17.52;14.60;;;;;;;19.71;nan;101440.34;5042371;28;20029;-72
2021/06/19 03:00:17;;;;;;;15.65;14.00;;;;;;;19.67;nan;101435.78;5039702;28;20029;-71
2021/06/19 03:02:44;;;;;;;16.70;13.80;;;;;;;19.65;nan;101441.50;5020882;28;20120;-71
2021/06/19 03:05:11;;;;;;;17.60;14.38;;;;;;;19.66;nan;101439.59;5044025;28;20044;-72
2021/06/19 03:07:37;;;;;;;17.77;14.82;;;;;;;19.66;nan;101443.13;5039325;28;20044;-72
2021/06/19 03:10:08;;;;;;;17.40;13.82;;;;;;;19.71;nan;101442.25;5022470;28;20029;-72
2021/06/19 03:12:34;;;;;;;16.75;14.93;;;;;;;19.72;nan;101443.84;5040381;28;20025;-72
2021/06/19 03:15:00;;;;;;;17.08;14.68;;;;;;;19.80;nan;101443.22;5039377;28;20025;-71
2021/06/19 03:17:25;;;;;;;25.73;14.80;;;;;;;19.86;nan;101442.84;5039344;28;20024;-72
2021/06/19 03:19:51;;;;;;;17.58;14.82;;;;;;;19.92;nan;101446.28;5024495;28;20494;-72
2021/06/19 03:22:17;;;;;;;17.17;14.65;;;;;;;19.99;nan;101452.19;5040779;28;20025;-71
2021/06/19 03:24:43;;;;;;;17.20;14.55;;;;;;;20.05;nan;101444.75;5045499;28;20029;-71
2021/06/19 03:27:12;;;;;;;18.25;14.45;;;;;;;20.08;nan;101444.16;5044223;28;20040;-72
2021/06/19 03:29:38;;;;;;;22.67;15.15;;;;;;;20.14;nan;101454.69;5026613;28;20040;-72
2021/06/19 03:32:04;;;;;;;17.60;14.02;;;;;;;20.17;nan;101456.81;5044594;28;20029;-71
2021/06/19 03:34:31;;;;;;;15.68;13.75;;;;;;;20.19;nan;101462.78;5043387;28;20151;-71
2021/06/19 03:37:01;;;;;;;15.38;13.88;;;;;;;20.19;nan;101460.06;5041758;28;20021;-71
2021/06/19 03:39:35;;;;;;;16.90;13.70;;;;;;;20.27;nan;101449.59;5044054;28;20025;-71
2021/06/19 03:42:01;;;;;;;15.98;14.32;;;;;;;20.42;nan;101447.47;5046618;28;20104;-72
2021/06/19 03:44:28;;;;;;;15.95;13.85;;;;;;;20.60;nan;101456.72;5043490;28;20030;-71
2021/06/19 03:46:54;;;;;;;17.00;13.73;;;;;;;20.71;nan;101450.00;5044480;28;20048;-72
2021/06/19 03:49:21;;;;;;;19.17;14.63;;;;;;;20.83;nan;101448.72;5047168;28;20622;-72
2021/06/19 03:51:48;;;;;;;16.10;13.80;;;;;;;20.90;nan;101449.13;5044264;28;20033;-72
2021/06/19 03:54:14;;;;;;;20.48;14.23;;;;;;;21.01;nan;101456.00;5042518;28;22133;-72
2021/06/19 03:56:40;;;;;;;15.48;13.10;;;;;;;21.07;nan;101460.25;5043573;28;20399;-71
2021/06/19 03:59:06;;;;;;;15.25;13.63;;;;;;;21.15;nan;101461.44;5045052;28;20036;-72
2021/06/19 04:01:32;;;;;;;16.05;13.35;;;;;;;21.24;nan;101460.50;5028508;28;20078;-71
2021/06/19 04:03:58;;;;;;;15.10;13.50;;;;;;;21.32;nan;101461.69;5023319;28;20033;-72
2021/06/19 04:06:24;;;;;;;22.13;13.82;;;;;;;21.41;nan;101466.16;5041232;28;20021;-72
2021/06/19 04:08:50;;;;;;;16.80;14.95;;;;;;;21.53;nan;101468.34;5042800;28;20025;-72
2021/06/19 04:11:15;;;;;;;17.63;15.38;;;;;;;21.61;nan;101464.13;5045134;28;20039;-72
2021/06/19 04:13:41;;;;;;;17.08;15.23;;;;;;;21.72;nan;101446.41;5046171;28;20160;-71
2021/06/19 04:16:09;;;;;;;17.92;14.48;;;;;;;21.82;nan;101453.56;5037843;28;20494;-72
2021/06/19 04:18:35;;;;;;;16.48;14.25;;;;;;;21.87;nan;101456.19;5044411;28;20441;-72
2021/06/19 04:21:01;;;;;;;18.30;14.52;;;;;;;21.95;nan;101464.47;5042044;28;20501;-71
2021/06/19 04:23:26;;;;;;;16.15;14.57;;;;;;;22.01;nan;101465.94;5040932;28;20040;-72
2021/06/19 04:25:52;;;;;;;17.02;14.27;;;;;;;22.13;nan;101461.91;5026088;28;20101;-72
2021/06/19 04:28:17;;;;;;;15.07;13.35;;;;;;;22.23;nan;101453.47;5043390;28;20036;-72
2021/06/19 04:30:43;;;;;;;15.73;13.10;;;;;;;22.28;nan;101458.81;5022109;28;20025;-72
2021/06/19 04:33:09;;;;;;;17.67;14.43;;;;;;;22.20;nan;101452.16;5044392;28;20028;-72
2021/06/19 04:35:34;;;;;;;16.70;13.48;;;;;;;22.37;nan;101453.41;5042376;28;20178;-72
2021/06/19 04:38:00;;;;;;;17.20;13.75;;;;;;;22.42;nan;101456.81;5045114;28;20027;-72
2021/06/19 04:43:06;;;;;;;14.20;12.80;;;;;;;22.17;nan;101460.97;5047048;28;20029;-72
2021/06/19 04:45:33;;;;;;;17.33;13.65;;;;;;;22.36;nan;101452.63;5041410;28;20028;-72
2021/06/19 04:48:04;;;;;;;18.02;13.35;;;;;;;22.58;nan;101458.06;5044795;28;20063;-72
2021/06/19 04:50:31;;;;;;;17.10;13.82;;;;;;;22.73;nan;101461.53;5043963;28;20033;-72
2021/06/19 04:52:57;;;;;;;17.40;13.50;;;;;;;22.91;nan;101452.34;5022374;28;20020;-72
2021/06/19 04:55:24;;;;;;;14.88;12.68;;;;;;;22.98;nan;101458.19;5039294;28;20044;-72
2021/06/19 04:57:56;;;;;;;14.93;13.13;;;;;;;23.09;nan;101448.56;5042911;28;20029;-72
2021/06/19 05:00:24;;;;;;;16.02;14.30;;;;;;;23.18;nan;101443.94;5043200;28;20033;-72
2021/06/19 05:02:50;;;;;;;15.85;13.88;;;;;;;23.33;nan;101450.09;5042403;28;20024;-72
2021/06/19 05:05:15;;;;;;;17.63;13.40;;;;;;;23.52;nan;101450.66;5018947;28;20075;-72
2021/06/19 05:07:41;;;;;;;15.23;13.52;;;;;;;23.61;nan;101454.22;5046307;28;20036;-72
2021/06/19 05:10:09;;;;;;;14.60;13.02;;;;;;;23.75;nan;101451.38;5043681;28;20442;-72
2021/06/19 05:12:35;;;;;;;19.00;12.57;;;;;;;23.85;nan;101447.50;5037818;28;20044;-72
2021/06/19 05:15:03;;;;;;;18.48;13.18;;;;;;;23.96;nan;101448.81;5041404;28;20028;-72
2021/06/19 05:17:29;;;;;;;15.05;12.93;;;;;;;23.73;nan;101451.69;5041890;28;20036;-72
2021/06/19 05:19:55;;;;;;;14.23;12.73;;;;;;;24.02;nan;101450.25;5043570;28;20040;-72
2021/06/19 05:22:21;;;;;;;16.27;13.55;;;;;;;24.17;nan;101452.50;5020651;28;20033;-72
2021/06/19 05:24:47;;;;;;;15.32;13.82;;;;;;;24.31;nan;101449.63;5039746;28;20029;-72
2021/06/19 05:27:13;;;;;;;15.43;13.82;;;;;;;24.44;nan;101436.91;5040387;28;20078;-72
2021/06/19 05:29:39;;;;;;;16.00;13.70;;;;;;;24.58;nan;101434.75;5044108;28;20029;-72
2021/06/19 05:32:06;;;;;;;14.70;13.23;;;;;;;24.66;nan;101442.16;5041813;28;20024;-71
2021/06/19 05:34:32;;;;;;;15.35;13.77;;;;;;;24.80;nan;101431.81;5042423;28;20394;-72
2021/06/19 05:36:58;;;;;;;15.05;13.43;;;;;;;24.91;nan;101429.50;5041478;28;20392;-72
2021/06/19 05:39:23;;;;;;;16.98;12.75;;;;;;;25.10;nan;101437.34;5024990;28;20033;-72
2021/06/19 05:41:49;;;;;;;15.23;12.82;;;;;;;25.09;nan;101441.22;5022631;28;20649;-72
2021/06/19 05:44:15;;;;;;;14.50;12.85;;;;;;;25.21;nan;101441.34;5041344;28;20030;-71
2021/06/19 05:46:40;;;;;;;16.83;13.20;;;;;;;25.16;nan;101441.53;5039711;28;20021;-71
2021/06/19 05:49:06;;;;;;;17.50;13.55;;;;;;;25.32;nan;101439.84;5039141;28;20701;-72
2021/06/19 05:51:32;;;;;;;18.15;12.98;;;;;;;25.54;nan;101431.31;5023454;28;20063;-72
2021/06/19 05:53:58;;;;;;;14.45;11.90;;;;;;;25.74;nan;101438.00;5039415;28;20033;-72
2021/06/19 05:56:23;;;;;;;15.70;12.43;;;;;;;25.87;nan;101438.88;5039524;28;20105;-72
2021/06/19 05:58:49;;;;;;;12.85;11.65;;;;;;;25.98;nan;101437.31;5040284;28;20025;-72
2021/06/19 06:01:15;;;;;;;12.88;11.50;;;;;;;26.13;nan;101433.97;5017880;28;20047;-72
2021/06/19 06:03:41;;;;;;;13.13;11.73;;;;;;;26.22;nan;101433.91;5044064;28;20028;-72
2021/06/19 06:06:07;;;;;;;13.02;11.80;;;;;;;26.39;nan;101435.69;5034987;28;20489;-71
2021/06/19 06:08:32;;;;;;;13.75;11.38;;;;;;;26.54;nan;101440.53;5040462;28;20044;-72
2021/06/19 06:10:58;;;;;;;14.45;11.35;;;;;;;26.76;nan;101431.91;5034652;28;20028;-72
2021/06/19 06:13:23;;;;;;;12.55;11.30;;;;;;;26.82;nan;101431.69;5040858;28;20060;-71
2021/06/19 06:15:49;;;;;;;12.25;10.90;;;;;;;26.88;nan;101427.56;5034017;28;20043;-72
2021/06/19 06:18:15;;;;;;;14.68;10.95;;;;;;;26.96;nan;101440.41;5037936;28;20028;-72
2021/06/19 06:20:41;;;;;;;14.57;10.23;;;;;;;27.13;nan;101439.44;5036238;28;20028;-72
2021/06/19 06:23:07;;;;;;;15.10;10.35;;;;;;;27.06;nan;101439.97;5034959;28;20028;-72
2021/06/19 06:25:33;;;;;;;11.88;10.70;;;;;;;27.24;nan;101438.59;5033868;28;20498;-72
2021/06/19 06:27:58;;;;;;;12.40;10.90;;;;;;;27.32;nan;101440.44;5036262;28;20042;-72
2021/06/19 06:30:24;;;;;;;14.63;10.70;;;;;;;27.47;nan;101438.13;5037323;28;20029;-72
2021/06/19 06:32:50;;;;;;;12.68;10.80;;;;;;;27.36;nan;101446.88;5042190;28;20170;-72
2021/06/19 06:35:16;;;;;;;12.23;10.55;;;;;;;27.17;nan;101441.13;5033191;28;20872;-72
2021/06/19 06:37:42;;;;;;;12.23;10.77;;;;;;;27.32;nan;101443.19;5036801;28;20857;-72
2021/06/19 06:40:10;;;;;;;11.13;10.00;;;;;;;27.66;nan;101438.38;5041080;28;20558;-72
2021/06/19 06:42:40;;;;;;;12.82;10.30;;;;;;;27.71;nan;101449.16;5035016;28;20025;-72
2021/06/19 06:45:08;;;;;;;11.15;9.73;;;;;;;27.81;nan;101443.13;5034016;28;20033;-72
2021/06/19 06:47:34;;;;;;;11.30;10.13;;;;;;;27.99;nan;101441.72;5041811;28;20593;-72
2021/06/19 06:49:59;;;;;;;10.32;9.02;;;;;;;28.23;nan;101440.03;5033663;28;20040;-72
2021/06/19 06:52:25;;;;;;;12.70;9.43;;;;;;;28.39;nan;101440.91;5042897;28;20498;-72
2021/06/19 06:54:51;;;;;;;10.23;9.02;;;;;;;28.64;nan;101443.53;5041267;28;20031;-72
2021/06/19 06:57:16;;;;;;;12.15;8.73;;;;;;;28.89;nan;101431.19;5043485;28;20449;-72
2021/06/19 06:59:43;;;;;;;9.02;8.18;;;;;;;29.11;nan;101430.56;5044234;28;20140;-72
2021/06/19 07:02:08;;;;;;;10.77;9.00;;;;;;;29.23;nan;101432.41;5042571;28;20090;-72
2021/06/19 07:04:34;;;;;;;9.63;8.57;;;;;;;29.18;nan;101440.97;5045574;28;20078;-72
2021/06/19 07:07:00;;;;;;;9.73;8.27;;;;;;;29.21;nan;101436.69;5038957;28;20025;-72
2021/06/19 07:09:25;;;;;;;9.05;8.15;;;;;;;28.81;nan;101435.72;5040764;28;20037;-72
2021/06/19 07:11:51;;;;;;;9.32;8.20;;;;;;;29.15;nan;101439.72;5043722;28;20074;-72
2021/06/19 07:14:16;;;;;;;11.05;8.63;;;;;;;28.98;nan;101434.59;5026258;28;20479;-72
2021/06/19 07:16:42;;;;;;;9.82;8.25;;;;;;;29.24;nan;101435.97;5024078;28;20068;-72
2021/06/19 07:19:08;;;;;;;8.18;7.38;;;;;;;29.35;nan;101431.50;5044772;28;20074;-72
2021/06/19 07:21:34;;;;;;;8.80;7.68;;;;;;;29.41;nan;101436.38;5038319;28;20056;-72
2021/06/19 07:24:00;;;;;;;7.90;7.10;;;;;;;29.51;nan;101434.28;5042558;28;20036;-72
2021/06/19 07:26:25;;;;;;;8.90;8.00;;;;;;;29.63;nan;101442.44;5039726;28;20724;-72
2021/06/19 07:28:51;;;;;;;8.23;7.43;;;;;;;29.71;nan;101433.94;5042302;28;20032;-72
2021/06/19 07:31:17;;;;;;;9.07;7.72;;;;;;;29.27;nan;101430.56;5024970;28;20031;-72
2021/06/19 07:33:43;;;;;;;8.30;7.50;;;;;;;29.44;nan;101432.09;5040258;28;20039;-72
2021/06/19 07:36:09;;;;;;;9.10;7.70;;;;;;;29.38;nan;101439.06;5038977;28;20074;-72
2021/06/19 07:38:35;;;;;;;7.95;7.25;;;;;;;29.46;nan;101429.84;5039827;28;20032;-72
2021/06/19 07:41:01;;;;;;;10.10;7.50;;;;;;;29.62;nan;101425.03;5039122;28;20028;-72
2021/06/19 07:43:27;;;;;;;8.35;7.55;;;;;;;29.98;nan;101425.81;5036715;28;20037;-72
2021/06/19 07:45:53;;;;;;;8.57;7.60;;;;;;;30.26;nan;101429.16;5043233;28;20021;-72
2021/06/19 07:48:19;;;;;;;10.85;7.50;;;;;;;29.59;nan;101430.50;5039485;28;20040;-73
2021/06/19 07:50:45;;;;;;;10.30;7.55;;;;;;;29.93;nan;101434.38;5041273;28;20064;-72
2021/06/19 07:53:11;;;;;;;7.82;7.03;;;;;;;29.93;nan;101434.38;5024395;28;20033;-72
2021/06/19 07:55:37;;;;;;;8.98;7.38;;;;;;;30.22;nan;101430.28;5041717;28;20029;-72
2021/06/19 07:58:04;;;;;;;8.25;7.50;;;;;;;29.92;nan;101427.25;5031983;28;20033;-72
2021/06/19 08:00:31;;;;;;;10.07;7.60;;;;;;;30.37;nan;101426.63;5031024;28;20063;-72
2021/06/19 08:02:58;;;;;;;7.78;6.95;;;;;;;30.18;nan;101421.91;5045407;28;20025;-72
2021/06/19 08:05:25;;;;;;;8.68;7.57;;;;;;;30.00;nan;101426.25;5018087;28;20036;-72
2021/06/19 08:07:51;;;;;;;8.93;7.47;;;;;;;30.13;nan;101421.41;5038882;28;20029;-72
2021/06/19 08:10:17;;;;;;;8.48;7.68;;;;;;;30.34;nan;101428.16;5041733;28;20482;-72
2021/06/19 08:12:43;;;;;;;124.70;18.52;;;;;;;30.66;nan;101430.72;5041645;28;20051;-72
2021/06/19 08:15:09;;;;;;;16.42;8.60;;;;;;;30.85;nan;101425.13;5041878;28;20028;-73
2021/06/19 08:17:35;;;;;;;38.05;9.48;;;;;;;30.67;nan;101419.28;5039852;28;20025;-73
2021/06/19 08:20:02;;;;;;;27.08;8.30;;;;;;;30.49;nan;101428.41;5042363;28;20245;-73
2021/06/19 08:22:28;;;;;;;13.65;7.88;;;;;;;30.50;nan;101408.66;5023815;28;20072;-73
2021/06/19 08:24:54;;;;;;;40.10;9.98;;;;;;;30.72;nan;101409.09;5040141;28;20017;-73
2021/06/19 08:27:23;;;;;;;17.15;7.97;;;;;;;31.23;nan;101401.22;5040832;28;20033;-73
2021/06/19 08:29:50;;;;;;;68.45;10.63;;;;;;;31.60;nan;101403.31;5039331;28;20028;-72
2021/06/19 08:32:16;;;;;;;37.75;8.48;;;;;;;32.00;nan;101406.25;5042438;28;20025;-73
2021/06/19 08:34:42;;;;;;;25.48;7.22;;;;;;;32.24;nan;101407.69;5039335;28;20033;-73
2021/06/19 08:37:08;;;;;;;416.25;31.75;;;;;;;32.39;nan;101411.44;5023923;28;20017;-73
2021/06/19 08:39:34;;;;;;;70.18;10.00;;;;;;;32.61;nan;101399.38;5023246;28;20376;-72
2021/06/19 08:42:00;;;;;;;9.82;5.90;;;;;;;32.65;nan;101391.84;5039144;28;20033;-73
2021/06/19 08:44:28;;;;;;;21.60;7.20;;;;;;;32.59;nan;101401.72;5039052;28;20568;-73
2021/06/19 08:46:55;;;;;;;84.53;10.18;;;;;;;32.76;nan;101392.75;5039080;28;20074;-72
2021/06/19 08:49:22;;;;;;;11.77;5.70;;;;;;;33.04;nan;101399.75;5029691;28;20036;-72
2021/06/19 08:51:50;;;;;;;11.25;6.03;;;;;;;33.06;nan;101408.50;5038391;28;20473;-72
2021/06/19 08:54:16;;;;;;;36.92;7.03;;;;;;;33.21;nan;101412.94;5043067;28;20029;-72
2021/06/19 08:56:42;;;;;;;9.50;5.43;;;;;;;33.08;nan;101408.09;5042541;28;20916;-73
2021/06/19 08:59:09;;;;;;;11.55;5.53;;;;;;;33.18;nan;101402.59;5040275;28;20032;-72
2021/06/19 09:01:35;;;;;;;18.10;6.68;;;;;;;32.74;nan;101400.69;5081334;28;20514;-73
2021/06/19 09:04:04;;;;;;;33.83;6.97;;;;;;;32.79;nan;101395.94;5034430;28;20114;-74
2021/06/19 09:06:31;;;;;;;214.57;18.80;;;;;;;33.13;nan;101411.31;5027430;28;20182;-74
2021/06/19 09:09:16;;;;;;;43.67;8.80;;;;;;;33.09;nan;101402.16;5015422;28;20121;-75
2021/06/19 09:11:48;;;;;;;570.50;48.42;;;;;;;33.40;nan;101394.44;5041888;28;20021;-74
2021/06/19 09:14:25;;;;;;;10.02;5.75;;;;;;;33.09;nan;101402.16;5041851;28;20036;-74
2021/06/19 09:17:00;;;;;;;38.10;7.38;;;;;;;33.22;nan;101386.78;5042024;28;20028;-74
2021/06/19 09:19:31;;;;;;;477.27;40.80;;;;;;;33.34;nan;101394.81;5022447;28;20039;-73
2021/06/19 09:22:23;;;;;;;12.40;6.07;;;;;;;32.83;nan;101396.78;5040950;28;20029;-73
2021/06/19 09:24:53;;;;;;;15.00;6.32;;;;;;;33.33;nan;101390.44;5042370;28;20029;-73
2021/06/19 09:27:37;;;;;;;9.02;6.10;;;;;;;33.71;nan;101385.44;5042702;28;20573;-74
2021/06/19 09:30:15;;;;;;;11.20;6.25;;;;;;;33.93;nan;101387.16;5039062;28;20021;-74
2021/06/19 09:32:49;;;;;;;5.95;5.35;;;;;;;34.06;nan;101384.00;5046032;28;20057;-74
2021/06/19 09:35:25;;;;;;;;;;;;;;;33.31;nan;101378.88;5041582;28;20107;-74
2021/06/19 09:37:59;;;;;;;8.65;5.57;;;;;;;33.44;nan;101384.94;5038685;28;19936;-74
2021/06/19 09:40:29;;;;;;;;;;;;;;;33.28;nan;101388.00;5040678;28;20547;-74
2021/06/19 09:43:07;;;;;;;8.15;6.32;;;;;;;33.37;nan;101392.44;5044963;28;20388;-74
2021/06/19 09:45:33;;;;;;;6.82;6.00;;;;;;;33.05;nan;101388.25;5040053;28;20025;-74
2021/06/19 09:47:58;;;;;;;9.23;6.10;;;;;;;33.20;nan;101386.34;5040978;28;20403;-74
2021/06/19 09:50:24;;;;;;;11.27;5.82;;;;;;;33.65;nan;101384.25;5041941;28;20028;-73
2021/06/19 09:52:51;;;;;;;8.35;5.75;;;;;;;33.76;nan;101392.63;5042531;28;20040;-74
2021/06/19 09:55:17;;;;;;;6.68;5.80;;;;;;;33.93;nan;101387.16;5022833;28;20045;-74
2021/06/19 09:57:48;;;;;;;18.63;6.45;;;;;;;34.25;nan;101389.22;5040961;28;20033;-74
2021/06/19 10:00:15;;;;;;;8.55;5.80;;;;;;;34.21;nan;101392.00;5038235;28;20725;-74
2021/06/19 10:02:42;;;;;;;6.20;5.57;;;;;;;34.29;nan;101381.66;5042706;28;20033;-73
2021/06/19 10:05:08;;;;;;;15.48;6.55;;;;;;;34.02;nan;101377.66;5041477;28;22011;-74
2021/06/19 10:07:35;;;;;;;7.63;5.75;;;;;;;34.36;nan;101381.72;5039722;28;20037;-74
2021/06/19 10:10:08;;;;;;;6.25;5.35;;;;;;;34.42;nan;101373.75;5039977;28;20128;-74
2021/06/19 10:12:36;;;;;;;7.13;5.47;;;;;;;34.54;nan;101374.19;5037385;28;20024;-73
2021/06/19 10:15:09;;;;;;;6.45;5.90;;;;;;;34.78;nan;101378.13;5038956;28;20032;-73
2021/06/19 10:17:40;;;;;;;8.00;5.05;;;;;;;35.05;nan;101372.97;5038460;28;20057;-74
2021/06/19 10:20:09;;;;;;;6.28;5.47;;;;;;;34.65;nan;101381.72;5040132;28;20028;-74
2021/06/19 10:22:36;;;;;;;7.68;5.50;;;;;;;34.68;nan;101370.59;5040550;28;20025;-73
2021/06/19 10:25:07;;;;;;;6.07;5.45;;;;;;;34.92;nan;101377.38;5039517;28;20060;-73
2021/06/19 10:27:39;;;;;;;7.30;5.57;;;;;;;34.83;nan;101368.59;5041114;28;20048;-73
2021/06/19 10:30:07;;;;;;;8.60;5.10;;;;;;;35.05;nan;101374.97;5041207;28;20021;-73
2021/06/19 10:32:37;;;;;;;5.90;5.03;;;;;;;35.20;nan;101372.94;5039675;28;20029;-74
2021/06/19 10:35:04;;;;;;;8.13;5.32;;;;;;;35.05;nan;101367.41;5040206;28;20039;-74
2021/06/19 10:37:31;;;;;;;7.28;5.50;;;;;;;35.29;nan;101364.94;5042298;28;20155;-73
2021/06/19 10:39:58;;;;;;;6.90;4.95;;;;;;;35.60;nan;101366.06;5034899;28;21070;-74
2021/06/19 10:42:28;;;;;;;8.68;4.93;;;;;;;35.51;nan;101366.50;5038918;28;20394;-74
2021/06/19 10:45:00;;;;;;;6.60;4.65;;;;;;;35.72;nan;101360.81;5039203;28;20367;-73
2021/06/19 10:47:53;;;;;;;4.63;4.22;;;;;;;35.41;nan;101359.78;5041118;28;20033;-74
2021/06/19 10:50:23;;;;;;;4.70;4.20;;;;;;;35.26;nan;101366.56;5023539;28;20033;-74
2021/06/19 10:53:05;;;;;;;4.72;4.20;;;;;;;35.42;nan;101366.13;5038384;28;20033;-75
2021/06/19 10:55:32;;;;;;;6.47;4.13;;;;;;;35.17;nan;101363.38;5039202;28;20503;-74
2021/06/19 10:58:00;;;;;;;6.07;4.43;;;;;;;35.22;nan;101359.41;5018360;28;20398;-74
2021/06/19 11:00:48;;;;;;;9.85;8.55;;;;;;;35.77;nan;101356.03;5039911;28;20059;-74
2021/06/19 11:03:16;;;;;;;6.22;5.50;;;;;;;35.69;nan;101350.47;5020866;28;20033;-74
2021/06/19 11:05:44;;;;;;;9.70;7.82;;;;;;;36.02;nan;101346.34;5034295;28;20098;-74
2021/06/19 11:08:17;;;;;;;8.07;6.68;;;;;;;36.46;nan;101344.06;5038568;28;20507;-73
2021/06/19 11:10:49;;;;;;;9.27;7.63;;;;;;;36.66;nan;101345.09;5034039;28;20493;-73
2021/06/19 11:13:30;;;;;;;4.95;4.47;;;;;;;36.09;nan;101348.31;5037187;28;20477;-74
2021/06/19 11:15:56;;;;;;;5.28;4.82;;;;;;;36.10;nan;101352.69;5040625;28;20108;-74
2021/06/19 11:18:47;;;;;;;6.95;4.97;;;;;;;35.67;nan;101343.72;5036140;28;20426;-74
2021/06/19 11:21:33;;;;;;;4.90;4.50;;;;;;;36.23;nan;101334.25;5029271;28;20074;-74
2021/06/19 11:24:01;;;;;;;5.07;4.38;;;;;;;36.40;nan;101335.34;5038089;28;20072;-74
2021/06/19 11:26:46;;;;;;;6.45;4.70;;;;;;;36.98;nan;101335.59;5017587;28;20764;-74
2021/06/19 11:29:41;;;;;;;5.72;4.25;;;;;;;37.21;nan;101325.38;5036819;28;22367;-74
2021/06/19 11:32:24;;;;;;;4.65;3.90;;;;;;;37.10;nan;101326.69;5036221;28;20730;-74
2021/06/19 11:34:51;;;;;;;;;;;;;;;36.95;nan;101325.28;5034142;28;20025;-74
2021/06/19 11:37:18;;;;;;;6.03;4.38;;;;;;;36.79;nan;101318.25;5038590;28;20090;-74